Glennie, Michigan
Current Conditions -  °F | °C
As of 4:53 AM on Saturday 29 Nov 2014 (Local Time) from KOSC Reporting Station
Overcast Overcast  
Wind Chill: 21°   Ceiling: 1600
Heat Index: 29°   Visibility: 10mi
Dew Point: 25°   Wind: 9mph
Humidity: 85%   Direction: 180°S
Pressure: 29.94"   Gusts: NA
Location:  44.56°N, 83.73°W
Report Text: KOSC 290953Z AUTO 18008KT 10SM BKN016 OVC060 M01/M03 A2994 RMK AO2 T10151038
Loading
Personal Weather Stations






























Interactive Weather Map New forecast layout! Learn more

10-Day Weather Forecast

Advertisements
Track Severe Weather on mobile